sensor_id;sensor_type;location;lat;lon;timestamp;pressure;altitude;pressure_sealevel;temperature;humidity
61474;BME280;53694;49.784;30.150;2023-03-22T00:00:55;99502.89;;;11.53;71.41
61474;BME280;53694;49.784;30.150;2023-03-22T00:01:57;99504.87;;;11.82;70.69
61474;BME280;53694;49.784;30.150;2023-03-22T00:02:59;99502.94;;;12.13;69.55
61474;BME280;53694;49.784;30.150;2023-03-22T00:04:00;99502.06;;;12.39;68.51
61474;BME280;53694;49.784;30.150;2023-03-22T00:05:02;99501.53;;;12.63;67.73
61474;BME280;53694;49.784;30.150;2023-03-22T00:06:04;99505.21;;;12.78;66.60
61474;BME280;53694;49.784;30.150;2023-03-22T00:07:06;99500.13;;;12.80;66.29
61474;BME280;53694;49.784;30.150;2023-03-22T00:08:08;99497.69;;;12.71;66.31
61474;BME280;53694;49.784;30.150;2023-03-22T00:09:10;99501.84;;;12.55;66.50
61474;BME280;53694;49.784;30.150;2023-03-22T00:10:12;99501.61;;;12.33;67.02
61474;BME280;53694;49.784;30.150;2023-03-22T00:11:14;99505.23;;;12.07;67.84
61474;BME280;53694;49.784;30.150;2023-03-22T00:12:16;99498.59;;;11.82;68.41
61474;BME280;53694;49.784;30.150;2023-03-22T00:13:17;99500.20;;;11.56;69.20
61474;BME280;53694;49.784;30.150;2023-03-22T00:14:19;99503.42;;;11.35;69.95
61474;BME280;53694;49.784;30.150;2023-03-22T00:15:21;99498.00;;;11.16;70.69
61474;BME280;53694;49.784;30.150;2023-03-22T00:16:23;99495.69;;;10.95;71.40
61474;BME280;53694;49.784;30.150;2023-03-22T00:17:24;99496.97;;;10.78;72.21
61474;BME280;53694;49.784;30.150;2023-03-22T00:18:26;99502.70;;;10.69;72.89
61474;BME280;53694;49.784;30.150;2023-03-22T00:19:28;99495.70;;;10.72;73.25
61474;BME280;53694;49.784;30.150;2023-03-22T00:20:29;99495.59;;;10.88;73.55
61474;BME280;53694;49.784;30.150;2023-03-22T00:21:31;99502.23;;;11.10;72.99
61474;BME280;53694;49.784;30.150;2023-03-22T00:22:33;99502.66;;;11.38;72.25
61474;BME280;53694;49.784;30.150;2023-03-22T00:23:34;99499.16;;;11.68;71.35
61474;BME280;53694;49.784;30.150;2023-03-22T00:24:36;99499.17;;;11.94;70.39
61474;BME280;53694;49.784;30.150;2023-03-22T00:25:38;99495.12;;;12.18;69.38
61474;BME280;53694;49.784;30.150;2023-03-22T00:26:39;99498.56;;;12.42;68.68
61474;BME280;53694;49.784;30.150;2023-03-22T00:27:41;99492.88;;;12.65;67.87
61474;BME280;53694;49.784;30.150;2023-03-22T00:28:43;99492.61;;;12.77;67.29
61474;BME280;53694;49.784;30.150;2023-03-22T00:29:45;99495.80;;;12.79;66.67
61474;BME280;53694;49.784;30.150;2023-03-22T00:30:57;99499.61;;;12.67;66.36
61474;BME280;53694;49.784;30.150;2023-03-22T00:31:59;99512.77;;;12.47;66.50
61474;BME280;53694;49.784;30.150;2023-03-22T00:33:01;99501.77;;;12.14;67.14
61474;BME280;53694;49.784;30.150;2023-03-22T00:34:02;99515.88;;;11.82;67.98
61474;BME280;53694;49.784;30.150;2023-03-22T00:35:05;99505.99;;;11.51;68.89
61474;BME280;53694;49.784;30.150;2023-03-22T00:36:09;99517.36;;;11.23;69.80
61474;BME280;53694;49.784;30.150;2023-03-22T00:37:11;99515.30;;;10.93;70.69
61474;BME280;53694;49.784;30.150;2023-03-22T00:38:13;99512.03;;;10.65;71.75
61474;BME280;53694;49.784;30.150;2023-03-22T00:39:15;99504.12;;;10.40;72.97
61474;BME280;53694;49.784;30.150;2023-03-22T00:40:17;99505.33;;;10.23;73.94
61474;BME280;53694;49.784;30.150;2023-03-22T00:41:21;99510.40;;;10.21;74.54
61474;BME280;53694;49.784;30.150;2023-03-22T00:42:23;99504.72;;;10.30;74.69
61474;BME280;53694;49.784;30.150;2023-03-22T00:43:24;99501.52;;;10.47;74.64
61474;BME280;53694;49.784;30.150;2023-03-22T00:44:26;99503.87;;;10.68;74.07
61474;BME280;53694;49.784;30.150;2023-03-22T00:45:28;99508.16;;;10.89;73.54
61474;BME280;53694;49.784;30.150;2023-03-22T00:46:29;99499.89;;;11.12;72.71
61474;BME280;53694;49.784;30.150;2023-03-22T00:47:31;99510.44;;;11.33;71.80
61474;BME280;53694;49.784;30.150;2023-03-22T00:48:33;99504.06;;;11.51;71.15
61474;BME280;53694;49.784;30.150;2023-03-22T00:49:35;99503.92;;;11.71;70.65
61474;BME280;53694;49.784;30.150;2023-03-22T00:50:37;99513.63;;;11.88;69.62
61474;BME280;53694;49.784;30.150;2023-03-22T00:51:39;99506.72;;;12.01;68.87
61474;BME280;53694;49.784;30.150;2023-03-22T00:52:40;99504.52;;;12.14;68.46
61474;BME280;53694;49.784;30.150;2023-03-22T00:53:42;99504.61;;;12.21;67.80
61474;BME280;53694;49.784;30.150;2023-03-22T00:54:44;99500.19;;;12.13;67.82
61474;BME280;53694;49.784;30.150;2023-03-22T00:55:45;99503.51;;;11.95;68.10
61474;BME280;53694;49.784;30.150;2023-03-22T00:56:47;99500.00;;;11.72;68.59
61474;BME280;53694;49.784;30.150;2023-03-22T00:57:48;99503.22;;;11.47;69.18
61474;BME280;53694;49.784;30.150;2023-03-22T00:58:50;99502.39;;;11.20;69.87
61474;BME280;53694;49.784;30.150;2023-03-22T00:59:51;99515.30;;;10.93;70.70
61474;BME280;53694;49.784;30.150;2023-03-22T01:00:53;99506.98;;;10.67;71.61
61474;BME280;53694;49.784;30.150;2023-03-22T01:01:55;99497.05;;;10.39;72.58
61474;BME280;53694;49.784;30.150;2023-03-22T01:02:56;99503.41;;;10.24;73.45
61474;BME280;53694;49.784;30.150;2023-03-22T01:03:58;99502.95;;;10.22;73.94
61474;BME280;53694;49.784;30.150;2023-03-22T01:04:59;99502.77;;;10.31;74.08
61474;BME280;53694;49.784;30.150;2023-03-22T01:06:01;99499.22;;;10.49;73.79
61474;BME280;53694;49.784;30.150;2023-03-22T01:07:03;99503.22;;;10.75;73.55
61474;BME280;53694;49.784;30.150;2023-03-22T01:08:05;99502.03;;;10.99;72.58
61474;BME280;53694;49.784;30.150;2023-03-22T01:09:07;99511.86;;;11.23;72.02
61474;BME280;53694;49.784;30.150;2023-03-22T01:10:09;99503.22;;;11.47;71.24
61474;BME280;53694;49.784;30.150;2023-03-22T01:11:11;99505.10;;;11.70;70.24
61474;BME280;53694;49.784;30.150;2023-03-22T01:12:13;99507.33;;;11.87;68.86
61474;BME280;53694;49.784;30.150;2023-03-22T01:13:16;99502.78;;;12.02;68.12
61474;BME280;53694;49.784;30.150;2023-03-22T01:14:18;99503.73;;;12.13;67.48
61474;BME280;53694;49.784;30.150;2023-03-22T01:15:19;99502.24;;;12.19;67.21
61474;BME280;53694;49.784;30.150;2023-03-22T01:16:21;99507.27;;;12.14;67.04
61474;BME280;53694;49.784;30.150;2023-03-22T01:17:22;99502.33;;;11.96;66.94
61474;BME280;53694;49.784;30.150;2023-03-22T01:18:24;99497.63;;;11.70;67.53
61474;BME280;53694;49.784;30.150;2023-03-22T01:19:25;99501.92;;;11.41;68.29
61474;BME280;53694;49.784;30.150;2023-03-22T01:20:27;99497.59;;;11.14;69.27
61474;BME280;53694;49.784;30.150;2023-03-22T01:21:29;99499.84;;;10.85;70.19
61474;BME280;53694;49.784;30.150;2023-03-22T01:22:30;99497.37;;;10.57;70.98
61474;BME280;53694;49.784;30.150;2023-03-22T01:23:32;99502.39;;;10.32;71.95
61474;BME280;53694;49.784;30.150;2023-03-22T01:24:34;99503.97;;;10.14;72.82
61474;BME280;53694;49.784;30.150;2023-03-22T01:25:35;99501.94;;;10.11;73.67
61474;BME280;53694;49.784;30.150;2023-03-22T01:26:37;99511.56;;;10.20;73.75
61474;BME280;53694;49.784;30.150;2023-03-22T01:27:39;99506.45;;;10.38;73.59
61474;BME280;53694;49.784;30.150;2023-03-22T01:28:40;99505.69;;;10.61;73.23
61474;BME280;53694;49.784;30.150;2023-03-22T01:29:42;99511.25;;;10.87;72.78
61474;BME280;53694;49.784;30.150;2023-03-22T01:30:43;99511.64;;;11.09;71.90
61474;BME280;53694;49.784;30.150;2023-03-22T01:31:45;99508.41;;;11.30;71.23
61474;BME280;53694;49.784;30.150;2023-03-22T01:32:46;99514.21;;;11.47;70.53
61474;BME280;53694;49.784;30.150;2023-03-22T01:33:48;99515.26;;;11.66;69.97
61474;BME280;53694;49.784;30.150;2023-03-22T01:34:50;99511.61;;;11.85;69.28
61474;BME280;53694;49.784;30.150;2023-03-22T01:35:51;99513.80;;;12.02;68.40
61474;BME280;53694;49.784;30.150;2023-03-22T01:36:53;99512.31;;;12.08;67.85
61474;BME280;53694;49.784;30.150;2023-03-22T01:37:54;99519.35;;;12.06;67.45
61474;BME280;53694;49.784;30.150;2023-03-22T01:38:56;99512.09;;;11.90;67.33
61474;BME280;53694;49.784;30.150;2023-03-22T01:39:57;99509.81;;;11.69;67.73
61474;BME280;53694;49.784;30.150;2023-03-22T01:40:59;99517.70;;;11.44;68.33
61474;BME280;53694;49.784;30.150;2023-03-22T01:42:01;99513.31;;;11.17;69.27
61474;BME280;53694;49.784;30.150;2023-03-22T01:43:09;99515.61;;;10.88;70.34
61474;BME280;53694;49.784;30.150;2023-03-22T01:44:11;99518.20;;;10.58;71.58
61474;BME280;53694;49.784;30.150;2023-03-22T01:46:37;99512.13;;;10.10;73.91
61474;BME280;53694;49.784;30.150;2023-03-22T01:47:47;99523.89;;;10.11;74.78
61474;BME280;53694;49.784;30.150;2023-03-22T01:48:49;99514.72;;;10.22;75.01
61474;BME280;53694;49.784;30.150;2023-03-22T01:49:51;99513.66;;;10.46;74.70
61474;BME280;53694;49.784;30.150;2023-03-22T01:52:12;99520.07;;;10.96;73.47
61474;BME280;53694;49.784;30.150;2023-03-22T01:53:15;99517.36;;;11.23;72.58
61474;BME280;53694;49.784;30.150;2023-03-22T01:54:36;99525.56;;;11.46;71.60
61474;BME280;53694;49.784;30.150;2023-03-22T01:55:37;99528.22;;;11.65;70.93
61474;BME280;53694;49.784;30.150;2023-03-22T01:56:40;99520.68;;;11.85;69.98
61474;BME280;53694;49.784;30.150;2023-03-22T01:57:42;99520.07;;;11.99;69.09
61474;BME280;53694;49.784;30.150;2023-03-22T01:58:45;99522.48;;;12.04;68.73
61474;BME280;53694;49.784;30.150;2023-03-22T01:59:47;99517.77;;;12.05;68.52
61474;BME280;53694;49.784;30.150;2023-03-22T02:00:51;99521.49;;;11.89;68.78
61474;BME280;53694;49.784;30.150;2023-03-22T02:01:53;99525.09;;;11.67;69.48
61474;BME280;53694;49.784;30.150;2023-03-22T02:02:55;99521.11;;;11.38;70.25
61474;BME280;53694;49.784;30.150;2023-03-22T02:04:02;99514.39;;;11.09;71.17
61474;BME280;53694;49.784;30.150;2023-03-22T02:05:04;99518.59;;;10.80;72.27
61474;BME280;53694;49.784;30.150;2023-03-22T02:06:07;99521.30;;;10.57;73.42
61474;BME280;53694;49.784;30.150;2023-03-22T02:07:12;99517.99;;;10.47;73.97
61474;BME280;53694;49.784;30.150;2023-03-22T02:08:13;99520.02;;;10.50;74.26
61474;BME280;53694;49.784;30.150;2023-03-22T02:09:15;99517.45;;;10.61;74.22
61474;BME280;53694;49.784;30.150;2023-03-22T02:10:21;99525.98;;;10.75;73.91
61474;BME280;53694;49.784;30.150;2023-03-22T02:11:28;99523.06;;;10.88;73.50
61474;BME280;53694;49.784;30.150;2023-03-22T02:14:16;99525.13;;;11.17;72.70
61474;BME280;53694;49.784;30.150;2023-03-22T02:27:45;99526.53;;;11.57;69.29
61474;BME280;53694;49.784;30.150;2023-03-22T02:28:52;99521.16;;;11.15;70.53
61474;BME280;53694;49.784;30.150;2023-03-22T02:33:27;99524.26;;;10.09;75.21
61474;BME280;53694;49.784;30.150;2023-03-22T02:35:57;99526.53;;;10.42;75.48
61474;BME280;53694;49.784;30.150;2023-03-22T02:41:11;99529.69;;;11.59;71.31
61474;BME280;53694;49.784;30.150;2023-03-22T02:44:41;99532.88;;;12.18;68.58
61474;BME280;53694;49.784;30.150;2023-03-22T02:47:04;99536.57;;;12.29;67.72
61474;BME280;53694;49.784;30.150;2023-03-22T02:48:33;99538.31;;;12.11;67.73
61474;BME280;53694;49.784;30.150;2023-03-22T02:49:38;99540.12;;;11.73;68.43
61474;BME280;53694;49.784;30.150;2023-03-22T02:50:43;99538.50;;;11.19;70.02
61474;BME280;53694;49.784;30.150;2023-03-22T02:53:15;99540.10;;;10.35;73.11
61474;BME280;53694;49.784;30.150;2023-03-22T02:54:24;99539.85;;;10.05;74.64
61474;BME280;53694;49.784;30.150;2023-03-22T02:56:52;99537.48;;;10.04;75.71
61474;BME280;53694;49.784;30.150;2023-03-22T02:58:02;99539.80;;;10.21;75.78
61474;BME280;53694;49.784;30.150;2023-03-22T02:59:05;99544.50;;;10.40;75.31
61474;BME280;53694;49.784;30.150;2023-03-22T03:00:11;99544.97;;;10.84;74.07
61474;BME280;53694;49.784;30.150;2023-03-22T03:01:23;99544.97;;;10.84;74.07
61474;BME280;53694;49.784;30.150;2023-03-22T03:02:26;99543.77;;;11.05;73.23
61474;BME280;53694;49.784;30.150;2023-03-22T03:03:30;99542.89;;;11.23;72.58
61474;BME280;53694;49.784;30.150;2023-03-22T03:04:35;99552.59;;;11.40;71.74
61474;BME280;53694;49.784;30.150;2023-03-22T03:05:40;99546.52;;;11.54;71.43
61474;BME280;53694;49.784;30.150;2023-03-22T03:06:44;99544.78;;;11.69;70.77
61474;BME280;53694;49.784;30.150;2023-03-22T03:07:53;99552.88;;;11.85;70.57
61474;BME280;53694;49.784;30.150;2023-03-22T03:08:56;99559.39;;;11.99;69.93
61474;BME280;53694;49.784;30.150;2023-03-22T03:09:58;99552.48;;;12.13;69.10
61474;BME280;53694;49.784;30.150;2023-03-22T03:11:00;99554.57;;;12.23;68.34
61474;BME280;53694;49.784;30.150;2023-03-22T03:12:03;99562.09;;;12.26;67.51
61474;BME280;53694;49.784;30.150;2023-03-22T03:13:09;99564.34;;;12.17;68.02
61474;BME280;53694;49.784;30.150;2023-03-22T03:14:25;99561.30;;;11.95;68.30
61474;BME280;53694;49.784;30.150;2023-03-22T03:15:27;99560.44;;;11.65;68.42
61474;BME280;53694;49.784;30.150;2023-03-22T03:16:31;99563.71;;;11.24;69.69
61474;BME280;53694;49.784;30.150;2023-03-22T03:22:02;99564.83;;;10.00;74.10
61474;BME280;53694;49.784;30.150;2023-03-22T03:24:35;99565.97;;;10.34;74.21
61474;BME280;53694;49.784;30.150;2023-03-22T03:25:52;99569.63;;;10.61;73.71
61474;BME280;53694;49.784;30.150;2023-03-22T03:27:01;99563.59;;;10.94;72.78
61474;BME280;53694;49.784;30.150;2023-03-22T03:30:43;99577.59;;;11.81;69.70
61474;BME280;53694;49.784;30.150;2023-03-22T03:33:00;99579.78;;;12.25;67.89
61474;BME280;53694;49.784;30.150;2023-03-22T03:35:22;99580.73;;;12.36;67.37
61474;BME280;53694;49.784;30.150;2023-03-22T03:36:26;99576.14;;;12.17;67.47
61474;BME280;53694;49.784;30.150;2023-03-22T03:37:44;99581.24;;;11.89;67.84
61474;BME280;53694;49.784;30.150;2023-03-22T03:38:48;99578.41;;;11.59;68.43
61474;BME280;53694;49.784;30.150;2023-03-22T03:41:13;99577.70;;;10.93;70.44
61474;BME280;53694;49.784;30.150;2023-03-22T03:42:17;99578.97;;;10.57;71.57
61474;BME280;53694;49.784;30.150;2023-03-22T03:43:19;99576.80;;;10.27;72.64
61474;BME280;53694;49.784;30.150;2023-03-22T03:44:22;99580.30;;;10.08;73.60
61474;BME280;53694;49.784;30.150;2023-03-22T03:45:24;99576.68;;;10.04;74.28
61474;BME280;53694;49.784;30.150;2023-03-22T03:46:26;99581.96;;;10.13;74.58
61474;BME280;53694;49.784;30.150;2023-03-22T03:47:28;99584.31;;;10.30;74.47
61474;BME280;53694;49.784;30.150;2023-03-22T03:48:32;99583.59;;;10.53;74.19
61474;BME280;53694;49.784;30.150;2023-03-22T03:49:35;99582.13;;;10.78;73.83
61474;BME280;53694;49.784;30.150;2023-03-22T03:50:37;99577.47;;;11.01;72.72
61474;BME280;53694;49.784;30.150;2023-03-22T03:51:46;99569.05;;;11.14;71.81
61474;BME280;53694;49.784;30.150;2023-03-22T03:52:49;99575.75;;;11.39;70.74
61474;BME280;53694;49.784;30.150;2023-03-22T03:53:51;99567.78;;;11.57;69.49
61474;BME280;53694;49.784;30.150;2023-03-22T03:54:52;99575.10;;;11.72;69.14
61474;BME280;53694;49.784;30.150;2023-03-22T03:55:54;99572.52;;;11.83;68.29
61474;BME280;53694;49.784;30.150;2023-03-22T03:56:56;99577.30;;;11.86;67.82
61474;BME280;53694;49.784;30.150;2023-03-22T03:57:57;99575.57;;;11.78;67.70
61474;BME280;53694;49.784;30.150;2023-03-22T03:58:59;99567.41;;;11.59;68.26
61474;BME280;53694;49.784;30.150;2023-03-22T04:00:00;99578.82;;;11.34;69.14
61474;BME280;53694;49.784;30.150;2023-03-22T04:01:02;99573.69;;;11.10;69.46
61474;BME280;53694;49.784;30.150;2023-03-22T04:02:04;99577.08;;;10.80;70.25
61474;BME280;53694;49.784;30.150;2023-03-22T04:03:05;99580.84;;;10.53;70.98
61474;BME280;53694;49.784;30.150;2023-03-22T04:04:07;99575.22;;;10.26;71.79
61474;BME280;53694;49.784;30.150;2023-03-22T04:05:10;99583.46;;;10.10;72.53
61474;BME280;53694;49.784;30.150;2023-03-22T04:06:13;99582.95;;;10.05;73.03
61474;BME280;53694;49.784;30.150;2023-03-22T04:07:14;99585.12;;;10.15;73.57
61474;BME280;53694;49.784;30.150;2023-03-22T04:08:16;99585.56;;;10.33;73.53
61474;BME280;53694;49.784;30.150;2023-03-22T04:09:17;99584.38;;;10.53;72.77
61474;BME280;53694;49.784;30.150;2023-03-22T04:10:19;99588.70;;;10.73;72.04
61474;BME280;53694;49.784;30.150;2023-03-22T04:11:21;99586.02;;;10.96;71.43
61474;BME280;53694;49.784;30.150;2023-03-22T04:12:22;99585.95;;;11.16;70.85
61474;BME280;53694;49.784;30.150;2023-03-22T04:13:24;99588.27;;;11.37;69.82
61474;BME280;53694;49.784;30.150;2023-03-22T04:14:26;99592.47;;;11.54;68.96
61474;BME280;53694;49.784;30.150;2023-03-22T04:15:28;99586.84;;;11.69;68.27
61474;BME280;53694;49.784;30.150;2023-03-22T04:16:29;99591.23;;;11.74;67.68
61474;BME280;53694;49.784;30.150;2023-03-22T04:17:31;99588.67;;;11.62;67.63
61474;BME280;53694;49.784;30.150;2023-03-22T04:18:32;99595.41;;;11.41;68.11
61474;BME280;53694;49.784;30.150;2023-03-22T04:19:34;99594.12;;;11.12;68.84
61474;BME280;53694;49.784;30.150;2023-03-22T04:20:36;99599.84;;;10.81;69.67
61474;BME280;53694;49.784;30.150;2023-03-22T04:21:37;99596.03;;;10.46;70.66
61474;BME280;53694;49.784;30.150;2023-03-22T04:22:40;99602.33;;;10.12;71.77
61474;BME280;53694;49.784;30.150;2023-03-22T04:23:41;99600.80;;;9.79;72.98
61474;BME280;53694;49.784;30.150;2023-03-22T04:24:43;99602.16;;;9.54;74.20
61474;BME280;53694;49.784;30.150;2023-03-22T04:25:45;99600.39;;;9.45;74.87
61474;BME280;53694;49.784;30.150;2023-03-22T04:26:46;99601.73;;;9.51;75.21
61474;BME280;53694;49.784;30.150;2023-03-22T04:27:48;99603.65;;;9.67;75.16
61474;BME280;53694;49.784;30.150;2023-03-22T04:28:49;99607.59;;;9.85;74.60
61474;BME280;53694;49.784;30.150;2023-03-22T04:29:51;99610.03;;;10.06;74.32
61474;BME280;53694;49.784;30.150;2023-03-22T04:30:53;99609.73;;;10.27;73.66
61474;BME280;53694;49.784;30.150;2023-03-22T04:31:54;99605.14;;;10.50;73.16
61474;BME280;53694;49.784;30.150;2023-03-22T04:32:56;99605.98;;;10.74;72.23
61474;BME280;53694;49.784;30.150;2023-03-22T04:33:57;99603.59;;;10.92;71.52
61474;BME280;53694;49.784;30.150;2023-03-22T04:34:59;99602.38;;;11.12;70.94
61474;BME280;53694;49.784;30.150;2023-03-22T04:36:00;99609.41;;;11.33;70.44
61474;BME280;53694;49.784;30.150;2023-03-22T04:37:02;99604.20;;;11.50;69.70
61474;BME280;53694;49.784;30.150;2023-03-22T04:38:03;99613.11;;;11.67;69.05
61474;BME280;53694;49.784;30.150;2023-03-22T04:39:08;99611.83;;;11.84;68.28
61474;BME280;53694;49.784;30.150;2023-03-22T04:40:11;99612.73;;;11.91;67.58
61474;BME280;53694;49.784;30.150;2023-03-22T04:41:12;99616.55;;;11.83;67.00
61474;BME280;53694;49.784;30.150;2023-03-22T04:42:14;99618.14;;;11.61;67.17
61474;BME280;53694;49.784;30.150;2023-03-22T04:43:16;99614.91;;;11.33;67.62
61474;BME280;53694;49.784;30.150;2023-03-22T04:44:17;99611.23;;;11.02;68.59
61474;BME280;53694;49.784;30.150;2023-03-22T04:45:19;99617.71;;;10.71;69.69
61474;BME280;53694;49.784;30.150;2023-03-22T04:46:20;99619.42;;;10.40;70.44
61474;BME280;53694;49.784;30.150;2023-03-22T04:47:22;99618.80;;;10.12;71.19
61474;BME280;53694;49.784;30.150;2023-03-22T04:48:23;99615.48;;;9.87;72.27
61474;BME280;53694;49.784;30.150;2023-03-22T04:49:25;99616.30;;;9.71;73.21
61474;BME280;53694;49.784;30.150;2023-03-22T04:50:27;99604.53;;;9.71;73.77
61474;BME280;53694;49.784;30.150;2023-03-22T04:51:28;99609.45;;;9.81;74.03
61474;BME280;53694;49.784;30.150;2023-03-22T04:52:30;99614.59;;;9.98;73.71
61474;BME280;53694;49.784;30.150;2023-03-22T04:53:31;99609.48;;;10.16;73.27
61474;BME280;53694;49.784;30.150;2023-03-22T04:54:33;99611.19;;;10.40;72.55
61474;BME280;53694;49.784;30.150;2023-03-22T04:55:35;99612.06;;;10.64;72.15
61474;BME280;53694;49.784;30.150;2023-03-22T04:56:36;99613.28;;;10.86;71.61
61474;BME280;53694;49.784;30.150;2023-03-22T04:57:38;99621.58;;;11.09;70.70
61474;BME280;53694;49.784;30.150;2023-03-22T04:58:41;99615.29;;;11.31;69.59
61474;BME280;53694;49.784;30.150;2023-03-22T04:59:43;99615.99;;;11.51;68.77
61474;BME280;53694;49.784;30.150;2023-03-22T05:00:46;99617.89;;;11.70;67.88
61474;BME280;53694;49.784;30.150;2023-03-22T05:01:48;99625.03;;;11.74;67.30
61474;BME280;53694;49.784;30.150;2023-03-22T05:02:50;99622.09;;;11.64;67.72
61474;BME280;53694;49.784;30.150;2023-03-22T05:03:52;99619.75;;;11.39;68.44
61474;BME280;53694;49.784;30.150;2023-03-22T05:04:53;99621.58;;;11.09;69.41
61474;BME280;53694;49.784;30.150;2023-03-22T05:05:57;99630.70;;;10.74;70.64
61474;BME280;53694;49.784;30.150;2023-03-22T05:06:59;99634.31;;;10.39;71.63
61474;BME280;53694;49.784;30.150;2023-03-22T05:08:01;99632.77;;;10.07;72.70
61474;BME280;53694;49.784;30.150;2023-03-22T05:09:02;99641.67;;;9.84;73.62
61474;BME280;53694;49.784;30.150;2023-03-22T05:10:05;99634.87;;;9.78;74.10
61474;BME280;53694;49.784;30.150;2023-03-22T05:11:15;99634.59;;;9.83;74.36
61474;BME280;53694;49.784;30.150;2023-03-22T05:12:17;99628.73;;;10.00;74.26
61474;BME280;53694;49.784;30.150;2023-03-22T05:13:20;99634.80;;;10.25;73.98
61474;BME280;53694;49.784;30.150;2023-03-22T05:14:21;99638.88;;;10.51;72.92
61474;BME280;53694;49.784;30.150;2023-03-22T05:15:23;99636.19;;;10.74;71.28
61474;BME280;53694;49.784;30.150;2023-03-22T05:16:24;99643.27;;;10.94;70.85
61474;BME280;53694;49.784;30.150;2023-03-22T05:17:26;99642.09;;;11.15;70.56
61474;BME280;53694;49.784;30.150;2023-03-22T05:18:28;99642.06;;;11.34;69.79
61474;BME280;53694;49.784;30.150;2023-03-22T05:19:30;99642.70;;;11.50;68.10
61474;BME280;53694;49.784;30.150;2023-03-22T05:20:31;99641.25;;;11.57;67.83
61474;BME280;53694;49.784;30.150;2023-03-22T05:21:33;99638.19;;;11.62;67.74
61474;BME280;53694;49.784;30.150;2023-03-22T05:22:35;99639.23;;;11.54;67.30
61474;BME280;53694;49.784;30.150;2023-03-22T05:23:36;99635.02;;;11.37;68.32
61474;BME280;53694;49.784;30.150;2023-03-22T05:24:38;99646.72;;;11.11;68.77
61474;BME280;53694;49.784;30.150;2023-03-22T05:25:42;99649.36;;;10.84;69.60
61474;BME280;53694;49.784;30.150;2023-03-22T05:26:44;99645.61;;;10.54;70.22
61474;BME280;53694;49.784;30.150;2023-03-22T05:27:45;99639.50;;;10.25;71.34
61474;BME280;53694;49.784;30.150;2023-03-22T05:28:47;99644.39;;;10.00;72.06
61474;BME280;53694;49.784;30.150;2023-03-22T05:29:48;99640.79;;;9.80;73.17
61474;BME280;53694;49.784;30.150;2023-03-22T05:30:50;99644.59;;;9.75;73.69
61474;BME280;53694;49.784;30.150;2023-03-22T05:31:52;99638.92;;;9.84;74.04
61474;BME280;53694;49.784;30.150;2023-03-22T05:32:58;99642.81;;;9.99;73.85
61474;BME280;53694;49.784;30.150;2023-03-22T05:34:00;99647.17;;;10.19;73.87
61474;BME280;53694;49.784;30.150;2023-03-22T05:35:02;99642.25;;;10.44;73.69
61474;BME280;53694;49.784;30.150;2023-03-22T05:36:04;99641.98;;;10.69;73.07
61474;BME280;53694;49.784;30.150;2023-03-22T05:37:06;99638.45;;;10.88;71.79
61474;BME280;53694;49.784;30.150;2023-03-22T05:38:08;99649.77;;;11.06;70.45
61474;BME280;53694;49.784;30.150;2023-03-22T05:39:10;99646.08;;;11.17;69.81
61474;BME280;53694;49.784;30.150;2023-03-22T05:40:12;99641.23;;;11.34;69.94
61474;BME280;53694;49.784;30.150;2023-03-22T05:41:13;99643.08;;;11.49;69.29
61474;BME280;53694;49.784;30.150;2023-03-22T05:42:15;99642.05;;;11.57;69.19
61474;BME280;53694;49.784;30.150;2023-03-22T05:43:16;99638.85;;;11.55;69.33
61474;BME280;53694;49.784;30.150;2023-03-22T05:44:18;99640.20;;;11.42;69.54
61474;BME280;53694;49.784;30.150;2023-03-22T05:45:20;99643.81;;;11.23;70.15
61474;BME280;53694;49.784;30.150;2023-03-22T05:46:22;99645.67;;;10.96;70.96
61474;BME280;53694;49.784;30.150;2023-03-22T05:47:23;99636.41;;;10.65;72.06
61474;BME280;53694;49.784;30.150;2023-03-22T05:48:25;99639.51;;;10.44;72.98
61474;BME280;53694;49.784;30.150;2023-03-22T05:49:26;99646.45;;;10.38;73.58
61474;BME280;53694;49.784;30.150;2023-03-22T05:50:28;99647.33;;;10.42;73.93
61474;BME280;53694;49.784;30.150;2023-03-22T05:51:29;99645.61;;;10.54;73.90
61474;BME280;53694;49.784;30.150;2023-03-22T05:52:31;99645.17;;;10.71;73.57
61474;BME280;53694;49.784;30.150;2023-03-22T05:53:33;99644.36;;;10.90;73.19
61474;BME280;53694;49.784;30.150;2023-03-22T05:54:35;99648.75;;;11.14;72.67
61474;BME280;53694;49.784;30.150;2023-03-22T05:55:36;99645.63;;;11.38;71.85
61474;BME280;53694;49.784;30.150;2023-03-22T05:56:38;99653.84;;;11.58;71.10
61474;BME280;53694;49.784;30.150;2023-03-22T05:57:40;99648.63;;;11.75;70.48
61474;BME280;53694;49.784;30.150;2023-03-22T05:58:42;99650.53;;;11.94;69.72
61474;BME280;53694;49.784;30.150;2023-03-22T05:59:43;99660.96;;;12.08;69.18
61474;BME280;53694;49.784;30.150;2023-03-22T06:00:45;99664.30;;;12.21;68.42
61474;BME280;53694;49.784;30.150;2023-03-22T06:01:46;99655.30;;;12.24;67.84
61474;BME280;53694;49.784;30.150;2023-03-22T06:02:49;99658.32;;;12.15;68.04
61474;BME280;53694;49.784;30.150;2023-03-22T06:03:50;99663.92;;;11.96;68.72
61474;BME280;53694;49.784;30.150;2023-03-22T06:04:52;99661.17;;;11.73;69.15
61474;BME280;53694;49.784;30.150;2023-03-22T06:05:54;99666.91;;;11.41;69.86
61474;BME280;53694;49.784;30.150;2023-03-22T06:06:55;99656.85;;;11.07;70.86
61474;BME280;53694;49.784;30.150;2023-03-22T06:07:58;99658.91;;;10.71;72.16
61474;BME280;53694;49.784;30.150;2023-03-22T06:08:59;99665.67;;;10.38;73.62
61474;BME280;53694;49.784;30.150;2023-03-22T06:10:01;99668.61;;;10.14;74.90
61474;BME280;53694;49.784;30.150;2023-03-22T06:11:03;99662.61;;;10.08;75.75
61474;BME280;53694;49.784;30.150;2023-03-22T06:12:05;99668.33;;;10.19;75.93
61474;BME280;53694;49.784;30.150;2023-03-22T06:13:06;99664.88;;;10.38;75.67